Nuiqsut Airport Nuiqsut US
ICAO: PAQT
IATA:
Category: Medium
Scheduled Services:

Elevation: 38 ft
TransAlt. 0 ft.

Airport Communications:
ANCHORAGE CNTR:119.4
ASOS:122.5
CTAF:122.8
DEADHORSE RDO:122.5

PAQT Zoom In..

If you have problems with the map follow the link
https://www.worldairports.se/pages/airport.php?
ICAO=PAQT

Runways:

(A) RW 05 length 4589 ft width 100 ft
---- / hdg 49

(B) RW 23 length 4589 ft width 100 ft
---- / hdg 229

Location; PAQT
Day. 24 / Time. 10.53 Zulu
* Altimeter: 29.87
* Temperature: -13° c. -8.6°f.
* Wind from: 210° Speed 03 kn.
Dewpoint: -14° c.
Visibility: 10 Statute Miles.
Clouds: Broken 12000 ft.

PAQT 241053Z AUTO 21003KT 10SM UP BKN120 M13/M14 A2987 RMK AO2 UPB0954E04B47 SLP117 P0000 T11281144 TSNO $


Wind From 210°
Speed 03 kn.

 
 
jpsmedia.com for Web Design worldairports.se 2019   terms of use